Search for airport 
image banner adimage banner adimage banner ad
image banner ad

EDCA - Anklam

Located in Anklam, Germany

ICAO - EDCA, IATA - QKQ

Data provided by Airmate  

General information

Coordinates: N53°49'54" E13°40'23"
Elevation is 18 feet MSL.
Magnetic variation is 4.0000° East
View others Airports in Mecklenburg-Vorpommern

Operational data

Special qualification required
Current time UTC:
Current local time:
Weather at : EDAH - Heringsdorf ( 32 km )
TAF: TAF EDAH 051400Z 0515/0524 25020G35KT 6000 BKN030 PROB30 TEMPO 0517/0521 4500 RADZ BKN011
View NOTAMs / SUP AIP / TFR affecting this airport [VIEW]
Communications frequencies: [VIEW]

Runways:

RWY identifierQFULength (ft)Width (ft)SurfaceLDA (ft)
0990°328166ASPH3281
27270°328166ASPH3281
09G90°2953131GRASS2953
27G270°2953131GRASS2953

Airport contact information

Address: Anklam Germany

Other aviation service providers

Aviation club (not for profit)

Fliegerclub 'Otto Lilienthal' E.V.

Fliegerclub 'Otto Lilienthal' E.V.

Satellite view of EDCA